Terminal Aerodrome Forecast
Issued by NWS

Home | Current Version | Previous Version | Text Only | Print | Product List | Glossary On
Versions: 1 2 3 4 5 6 7 8 9 10 11 12 13 14 15 16 17 18 19 20
000
FTUS43 KDVN 302300
TAFBRL
TAF
KBRL 302326Z 3100/3124 24003KT P6SM FEW050
     FM310900 VRB02KT 4SM BR SKC
      TEMPO 3109/3113 1SM BR SCT005
     FM311400 19007KT P6SM SKC=

USA.gov is the U.S. government's official web portal to all federal, state and local government web resources and services.